Time;durP1;ratioP1;P1;durP2;ratioP2;P2;SDS_P1;SDS_P2;PMS_P1;PMS_P2;Temp;Humidity;BMP_temperature;BMP_pressure;BME280_temperature;BME280_humidity;BME280_pressure;Samples;Min_cycle;Max_cycle;Signal;HPM_P1;HPM_P2
2023/05/31 00:02:53;;;;;;;3.28;1.15;;;;;;;13.21;41.99;98460.63;10582791;27;20171;-71
2023/05/31 00:08:14;;;;;;;2.38;1.00;;;;;;;13.21;42.34;98452.22;10610751;27;20115;-71
2023/05/31 00:13:35;;;;;;;5.93;1.30;;;;;;;13.20;42.53;98453.56;10610819;27;20453;-71
2023/05/31 00:18:57;;;;;;;3.47;1.15;;;;;;;13.22;43.14;98452.97;10596332;27;20122;-71
2023/05/31 00:24:18;;;;;;;6.20;1.50;;;;;;;13.18;42.73;98456.22;10610261;27;20164;-71
2023/05/31 00:29:39;;;;;;;4.30;2.25;;;;;;;13.15;42.54;98460.22;10609820;27;20490;-71
2023/05/31 00:35:00;;;;;;;5.90;1.70;;;;;;;13.11;42.90;98463.47;10595478;27;20134;-71
2023/05/31 00:40:24;;;;;;;3.53;1.73;;;;;;;13.05;42.78;98456.72;10596007;27;20408;-71
2023/05/31 00:45:45;;;;;;;5.10;1.60;;;;;;;13.01;43.04;98459.22;10580967;27;20066;-71
2023/05/31 00:51:06;;;;;;;3.55;1.52;;;;;;;12.94;43.18;98454.53;10624472;27;20160;-71
2023/05/31 00:56:27;;;;;;;4.32;1.60;;;;;;;12.90;43.09;98455.72;10580678;27;20114;-71
2023/05/31 01:01:47;;;;;;;3.60;1.35;;;;;;;12.88;43.53;98446.44;10608976;27;20066;-71
2023/05/31 01:07:08;;;;;;;3.70;1.50;;;;;;;12.73;43.52;98447.50;10594296;27;20067;-71
2023/05/31 01:12:44;;;;;;;3.90;1.38;;;;;;;12.59;43.94;98447.25;10608822;28;20112;-71
2023/05/31 01:18:18;;;;;;;4.35;1.50;;;;;;;12.51;44.17;98448.75;10594657;28;20122;-71
2023/05/31 01:23:58;;;;;;;3.38;1.40;;;;;;;12.47;44.43;98448.47;10608978;28;20119;-71
2023/05/31 01:29:21;;;;;;;2.90;1.27;;;;;;;12.44;43.98;98452.44;10594036;28;20111;-71
2023/05/31 01:34:45;;;;;;;6.38;1.20;;;;;;;12.36;44.23;98447.00;10579912;28;20066;-71
2023/05/31 01:40:07;;;;;;;3.83;1.20;;;;;;;12.26;44.39;98449.06;10593773;28;20081;-72
2023/05/31 01:45:28;;;;;;;3.90;1.15;;;;;;;12.24;44.75;98443.31;10608002;28;20559;-71
2023/05/31 01:50:49;;;;;;;2.38;1.15;;;;;;;12.23;44.64;98450.25;10612177;27;20118;-71
2023/05/31 01:56:11;;;;;;;2.03;1.02;;;;;;;12.19;44.68;98450.69;10602176;27;20063;-71
2023/05/31 02:01:32;;;;;;;3.78;1.08;;;;;;;12.24;44.84;98460.09;10601735;27;20134;-71
2023/05/31 02:06:53;;;;;;;3.58;1.45;;;;;;;12.22;44.92;98460.69;10616512;27;20138;-71
2023/05/31 02:12:14;;;;;;;4.05;1.00;;;;;;;12.17;44.65;98450.56;10586865;27;20303;-71
2023/05/31 02:17:34;;;;;;;5.68;1.25;;;;;;;12.18;44.96;98459.69;10586763;27;20173;-71
2023/05/31 02:22:55;;;;;;;5.20;1.05;;;;;;;12.18;45.08;98452.03;10586663;27;20122;-71
2023/05/31 02:28:16;;;;;;;4.07;0.80;;;;;;;12.19;45.25;98453.50;10600211;27;20110;-71
2023/05/31 02:33:37;;;;;;;3.55;1.13;;;;;;;12.12;45.20;98459.97;10585941;27;20040;-71
2023/05/31 02:38:58;;;;;;;4.03;0.98;;;;;;;12.02;45.14;98459.22;10600134;27;20467;-71
2023/05/31 02:44:20;;;;;;;6.18;1.27;;;;;;;12.00;45.52;98459.09;10614049;27;20112;-71
2023/05/31 02:49:41;;;;;;;3.30;1.10;;;;;;;11.99;45.50;98457.63;10599893;27;20114;-71
2023/05/31 02:55:03;;;;;;;2.80;1.20;;;;;;;11.96;45.55;98467.16;10595678;27;20110;-71
2023/05/31 03:00:30;;;;;;;6.18;1.17;;;;;;;11.84;45.83;98458.63;10570390;28;20161;-71
2023/05/31 03:05:52;;;;;;;6.00;2.10;;;;;;;11.88;46.06;98458.19;10556200;28;20072;-72
2023/05/31 03:11:12;;;;;;;3.33;1.17;;;;;;;11.83;45.89;98462.00;10624660;27;20093;-70
2023/05/31 03:16:33;;;;;;;2.80;1.05;;;;;;;11.86;46.13;98466.41;10612829;27;20070;-69
2023/05/31 03:21:54;;;;;;;3.90;1.25;;;;;;;11.92;46.05;98459.22;10598235;27;20126;-69
2023/05/31 03:27:18;;;;;;;3.97;1.30;;;;;;;12.08;46.06;98461.75;10584983;27;20134;-70
2023/05/31 03:32:39;;;;;;;8.25;1.60;;;;;;;12.19;45.94;98461.16;10597897;27;20118;-71
2023/05/31 03:38:00;;;;;;;4.97;1.38;;;;;;;12.29;45.61;98456.28;10598209;27;20118;-71
2023/05/31 03:43:22;;;;;;;3.95;1.17;;;;;;;12.44;45.80;98478.34;10597555;27;20059;-70
2023/05/31 03:48:42;;;;;;;5.13;1.23;;;;;;;12.53;45.89;98477.63;10597207;27;20156;-70
2023/05/31 03:54:03;;;;;;;4.15;1.15;;;;;;;12.59;45.60;98480.84;10583162;27;20476;-69
2023/05/31 03:59:25;;;;;;;3.28;1.50;;;;;;;12.74;45.58;98488.22;10601369;27;20469;-74
2023/05/31 04:04:46;;;;;;;4.50;1.27;;;;;;;12.84;45.58;98486.13;10596818;27;20404;-70
2023/05/31 04:10:07;;;;;;;3.75;1.38;;;;;;;13.00;45.47;98486.50;10596229;27;20117;-70
2023/05/31 04:15:28;;;;;;;2.75;1.25;;;;;;;13.20;45.47;98484.41;10581965;27;20058;-72
2023/05/31 04:20:53;;;;;;;3.03;1.50;;;;;;;13.42;45.29;98488.03;10596624;27;20047;-72
2023/05/31 04:26:17;;;;;;;3.97;1.50;;;;;;;13.62;44.83;98480.97;10584636;27;20043;-72
2023/05/31 04:31:40;;;;;;;5.78;1.58;;;;;;;13.81;44.77;98477.31;10596412;27;20051;-72
2023/05/31 04:37:13;;;;;;;3.17;1.52;;;;;;;14.04;44.59;98469.03;10596770;27;20063;-72
2023/05/31 04:42:33;;;;;;;6.00;1.70;;;;;;;14.27;44.25;98478.88;10594927;27;20047;-72
2023/05/31 04:47:55;;;;;;;4.50;1.85;;;;;;;14.50;43.81;98472.66;10609467;27;20046;-73
2023/05/31 04:53:17;;;;;;;4.72;1.80;;;;;;;14.70;43.00;98490.81;10602990;27;20095;-70
2023/05/31 04:58:39;;;;;;;6.10;1.80;;;;;;;14.94;42.66;98488.78;10594141;27;20035;-70
2023/05/31 05:04:04;;;;;;;5.00;1.85;;;;;;;15.21;42.13;98496.75;10595546;27;20051;-70
2023/05/31 05:09:25;;;;;;;4.88;1.50;;;;;;;15.56;41.06;98491.16;10609232;27;20469;-70
2023/05/31 05:14:46;;;;;;;4.10;1.83;;;;;;;15.77;40.60;98495.19;10593187;28;20452;-70
2023/05/31 05:20:10;;;;;;;4.95;1.40;;;;;;;16.08;40.30;98498.44;10591141;28;20498;-70
2023/05/31 05:25:33;;;;;;;3.95;1.80;;;;;;;16.43;39.29;98500.41;10595351;27;20495;-70
2023/05/31 05:30:55;;;;;;;5.85;1.60;;;;;;;16.85;38.52;98497.16;10600776;27;20039;-70
2023/05/31 05:36:18;;;;;;;5.10;1.52;;;;;;;17.31;37.48;98514.41;10617078;27;20044;-71
2023/05/31 05:41:44;;;;;;;7.65;1.73;;;;;;;17.56;36.83;98502.31;10590090;27;20116;-70
2023/05/31 05:47:06;;;;;;;6.38;1.60;;;;;;;18.05;36.09;98513.28;10587743;27;20047;-71
2023/05/31 05:52:27;;;;;;;4.88;1.40;;;;;;;18.48;35.45;98522.53;10601530;27;20035;-71
2023/05/31 05:57:48;;;;;;;6.43;1.50;;;;;;;18.88;34.65;98511.72;10587561;27;20062;-70
2023/05/31 06:03:32;;;;;;;3.72;1.50;;;;;;;19.47;33.89;98520.09;10608003;27;20074;-71
2023/05/31 06:08:56;;;;;;;4.15;1.40;;;;;;;19.78;33.17;98525.00;10601526;27;20050;-71
2023/05/31 06:14:17;;;;;;;8.73;1.63;;;;;;;19.83;32.85;98528.78;10587108;27;20118;-71
2023/05/31 06:19:43;;;;;;;3.17;1.60;;;;;;;20.50;31.86;98534.47;10615552;27;20084;-70
2023/05/31 06:25:05;;;;;;;7.10;1.30;;;;;;;20.71;31.41;98530.34;10586260;27;20395;-70
2023/05/31 06:30:26;;;;;;;4.22;1.63;;;;;;;21.24;31.21;98527.44;10615076;27;20433;-71
2023/05/31 06:35:49;;;;;;;4.43;1.50;;;;;;;21.31;30.54;98532.00;10600446;27;20035;-70
2023/05/31 06:41:10;;;;;;;5.32;1.20;;;;;;;21.57;30.22;98525.84;10614417;27;20408;-71
2023/05/31 06:46:33;;;;;;;;;;;;;;;21.78;28.34;98525.19;10600380;27;20062;-70
2023/05/31 06:52:33;;;;;;;5.28;1.40;;;;;;;22.16;27.80;98528.69;10530947;28;19959;-71
2023/05/31 06:58:09;;;;;;;5.10;1.33;;;;;;;22.31;27.82;98535.59;10611384;27;20058;-70
2023/05/31 07:03:33;;;;;;;8.15;1.48;;;;;;;22.81;27.43;98532.94;10598877;27;20067;-71
2023/05/31 07:08:56;;;;;;;3.75;1.33;;;;;;;23.22;26.99;98537.06;10585133;27;20040;-71
2023/05/31 07:14:38;;;;;;;6.95;1.15;;;;;;;23.81;26.17;98530.97;10615851;27;20063;-70
2023/05/31 07:20:00;;;;;;;4.00;1.50;;;;;;;23.91;25.63;98522.69;10570318;27;20118;-70
2023/05/31 07:25:21;;;;;;;3.38;1.05;;;;;;;24.16;24.92;98523.34;10612450;27;20043;-71
2023/05/31 07:30:42;;;;;;;6.18;1.20;;;;;;;23.55;24.51;98528.09;10611997;27;20079;-71
2023/05/31 07:36:03;;;;;;;3.53;1.45;;;;;;;23.97;23.98;98519.28;10611842;27;20066;-70
2023/05/31 07:41:23;;;;;;;4.15;1.40;;;;;;;23.99;23.67;98522.19;10611660;27;20058;-71
2023/05/31 07:46:44;;;;;;;8.18;1.35;;;;;;;24.33;23.78;98513.84;10582158;27;20053;-70
2023/05/31 07:52:05;;;;;;;3.80;1.30;;;;;;;24.57;23.73;98496.59;10597016;27;20039;-70
2023/05/31 07:57:26;;;;;;;7.43;1.27;;;;;;;24.33;23.47;98496.72;10596731;27;20050;-71
2023/05/31 08:02:47;;;;;;;7.60;1.60;;;;;;;23.91;23.75;98504.84;10596508;27;20058;-71
2023/05/31 08:08:08;;;;;;;4.15;1.15;;;;;;;24.44;24.32;98489.13;10610560;27;20110;-70
2023/05/31 08:13:29;;;;;;;7.55;1.45;;;;;;;24.97;23.31;98501.78;10625697;27;20045;-70
2023/05/31 08:18:50;;;;;;;4.47;1.17;;;;;;;25.04;23.36;98489.13;10581489;27;20122;-71
2023/05/31 08:24:12;;;;;;;6.63;1.50;;;;;;;25.52;22.99;98494.41;10581870;27;20446;-71
2023/05/31 08:29:33;;;;;;;3.10;1.30;;;;;;;25.93;22.94;98501.66;10609873;27;20039;-71
2023/05/31 08:34:55;;;;;;;10.47;1.80;;;;;;;25.65;22.98;98504.69;10581366;27;20456;-70
2023/05/31 08:40:16;;;;;;;4.65;1.42;;;;;;;24.61;23.54;98491.00;10624642;27;20450;-70
2023/05/31 08:45:38;;;;;;;7.75;2.00;;;;;;;23.57;25.16;98496.06;10581065;27;20095;-71
2023/05/31 08:51:00;;;;;;;6.13;1.38;;;;;;;23.85;24.89;98493.31;10594849;27;20046;-70
2023/05/31 08:56:23;;;;;;;5.57;1.63;;;;;;;24.47;23.68;98496.34;10595340;27;20038;-71
2023/05/31 09:01:47;;;;;;;3.63;1.33;;;;;;;23.98;23.84;98490.09;10595553;27;20043;-70
2023/05/31 09:07:09;;;;;;;5.00;1.17;;;;;;;24.28;23.74;98483.72;10608641;27;20552;-71
2023/05/31 09:12:31;;;;;;;7.93;1.85;;;;;;;24.69;22.86;98482.59;10594181;27;20039;-70
2023/05/31 09:17:53;;;;;;;5.28;1.40;;;;;;;24.48;23.11;98492.09;10594101;28;20058;-70
2023/05/31 09:23:14;;;;;;;4.50;1.42;;;;;;;24.86;22.59;98468.69;10608431;28;20043;-70
2023/05/31 09:28:35;;;;;;;6.95;1.60;;;;;;;24.15;22.94;98473.41;10594470;28;20039;-70
2023/05/31 09:33:57;;;;;;;11.80;2.53;;;;;;;25.18;23.19;98465.84;10623676;28;20538;-70
2023/05/31 09:39:19;;;;;;;7.35;1.50;;;;;;;25.79;22.35;98459.25;10593854;28;20433;-71
2023/05/31 09:44:47;;;;;;;7.53;1.50;;;;;;;25.20;21.97;98460.91;10623473;28;20043;-71
2023/05/31 09:50:15;;;;;;;6.78;1.80;;;;;;;25.13;22.39;98462.19;10579932;28;20050;-70
2023/05/31 09:55:42;;;;;;;5.07;1.20;;;;;;;25.53;22.16;98439.44;10566784;28;20511;-71
2023/05/31 10:01:05;;;;;;;4.50;1.00;;;;;;;26.01;21.31;98443.91;10566794;28;20051;-71
2023/05/31 10:06:26;;;;;;;6.50;1.25;;;;;;;26.28;21.08;98442.94;10579096;28;20055;-71
2023/05/31 10:11:50;;;;;;;4.47;1.13;;;;;;;26.48;21.40;98448.28;10627340;27;20090;-71
2023/05/31 10:17:11;;;;;;;6.15;1.10;;;;;;;26.76;20.73;98437.25;10600825;27;20039;-71
2023/05/31 10:22:32;;;;;;;4.50;1.27;;;;;;;26.76;20.59;98430.81;10600835;27;20039;-71
2023/05/31 10:27:55;;;;;;;4.38;1.17;;;;;;;26.28;21.11;98431.47;10614625;27;20046;-71
2023/05/31 10:33:16;;;;;;;2.97;0.93;;;;;;;26.22;21.22;98432.09;10600594;27;20482;-70
2023/05/31 10:38:59;;;;;;;2.77;1.00;;;;;;;26.06;21.62;98428.25;10600160;27;20051;-71
2023/05/31 10:44:26;;;;;;;7.18;1.05;;;;;;;26.23;21.25;98424.25;10599772;27;20046;-71
2023/05/31 10:49:47;;;;;;;6.40;1.17;;;;;;;25.61;21.87;98421.72;10599982;27;20066;-71
2023/05/31 10:55:19;;;;;;;7.05;1.27;;;;;;;26.30;21.78;98400.03;10599523;27;20035;-71
2023/05/31 11:00:41;;;;;;;6.80;1.17;;;;;;;26.50;21.54;98411.81;10613426;27;20035;-71
2023/05/31 11:06:06;;;;;;;;;;;;;;;26.80;21.15;98405.06;10613337;27;20050;-71
2023/05/31 11:11:44;;;;;;;2.38;1.02;;;;;;;26.90;20.48;98398.75;10613377;27;19927;-71
2023/05/31 11:17:07;;;;;;;3.85;1.02;;;;;;;26.51;21.38;98401.81;10627902;27;20425;-71
2023/05/31 11:22:28;;;;;;;5.70;1.00;;;;;;;26.73;21.03;98395.69;10626826;27;20448;-71
2023/05/31 11:28:04;;;;;;;8.32;1.20;;;;;;;26.29;21.15;98392.88;10612265;27;20039;-71
2023/05/31 11:33:31;;;;;;;4.95;1.27;;;;;;;26.48;21.66;98379.59;10612241;27;20031;-71
2023/05/31 11:38:52;;;;;;;4.93;0.88;;;;;;;26.24;22.31;98380.63;10598579;27;20392;-71
2023/05/31 11:44:29;;;;;;;5.53;0.85;;;;;;;25.94;22.63;98378.00;10597585;27;20506;-70
2023/05/31 11:49:50;;;;;;;5.65;0.95;;;;;;;26.20;22.55;98374.13;10613171;27;20039;-71
2023/05/31 11:55:14;;;;;;;4.10;0.98;;;;;;;26.11;22.64;98363.97;10582618;27;20438;-71
2023/05/31 12:00:36;;;;;;;3.70;0.75;;;;;;;26.30;22.57;98350.66;10596917;27;20050;-71
2023/05/31 12:05:59;;;;;;;3.10;0.60;;;;;;;26.07;22.80;98343.91;10595161;28;20050;-71
2023/05/31 12:11:20;;;;;;;9.95;1.00;;;;;;;25.65;23.51;98350.31;10608684;28;20063;-71
2023/05/31 12:16:41;;;;;;;2.40;0.87;;;;;;;25.36;24.22;98329.06;10623741;28;20062;-71
2023/05/31 12:22:05;;;;;;;3.50;0.60;;;;;;;25.62;24.06;98332.41;10593951;28;20051;-71
2023/05/31 12:27:27;;;;;;;1.85;0.50;;;;;;;26.04;23.72;98328.81;10607861;28;20050;-71
2023/05/31 12:33:05;;;;;;;6.38;0.70;;;;;;;25.80;22.87;98329.16;10598539;27;20046;-70
2023/05/31 12:38:29;;;;;;;4.40;0.70;;;;;;;25.26;23.67;98321.03;10593688;28;20046;-71
2023/05/31 12:43:50;;;;;;;3.10;0.70;;;;;;;25.34;23.91;98318.34;10593604;28;20126;-71
2023/05/31 12:49:22;;;;;;;3.70;0.70;;;;;;;25.65;22.88;98313.16;10607554;28;20035;-71
2023/05/31 12:54:45;;;;;;;2.07;0.60;;;;;;;25.35;23.14;98301.91;10580254;28;20043;-71
2023/05/31 13:00:11;;;;;;;2.03;0.40;;;;;;;25.17;23.34;98301.59;10593239;28;20046;-70
2023/05/31 13:05:32;;;;;;;3.08;0.50;;;;;;;25.28;23.54;98295.38;10536523;27;1111101;-71
2023/05/31 13:10:53;;;;;;;2.28;0.43;;;;;;;25.39;23.48;98285.59;10608203;27;20039;-71
2023/05/31 13:16:14;;;;;;;2.38;0.40;;;;;;;25.22;22.64;98292.41;10580419;27;20045;-71
2023/05/31 13:21:36;;;;;;;0.97;0.30;;;;;;;24.90;23.77;98294.63;10594422;28;20409;-71
2023/05/31 13:26:57;;;;;;;1.63;0.40;;;;;;;24.72;23.31;98292.13;10623487;28;20047;-70
2023/05/31 13:32:19;;;;;;;1.85;0.40;;;;;;;24.91;24.23;98281.81;10607771;28;20070;-71
2023/05/31 13:37:40;;;;;;;7.63;0.60;;;;;;;25.38;23.56;98275.56;10608082;28;20092;-71
2023/05/31 13:43:01;;;;;;;1.98;0.47;;;;;;;25.69;23.43;98273.22;10593645;28;20054;-71
2023/05/31 13:48:22;;;;;;;2.47;0.55;;;;;;;25.70;23.42;98266.09;10600911;27;20096;-71
2023/05/31 13:53:42;;;;;;;1.92;0.40;;;;;;;25.69;23.38;98250.34;10601472;27;20047;-71
2023/05/31 13:59:04;;;;;;;3.83;0.45;;;;;;;25.49;23.32;98262.19;10601415;27;20039;-71
2023/05/31 14:04:25;;;;;;;2.58;0.40;;;;;;;25.55;23.44;98255.81;10615291;27;20055;-71
2023/05/31 14:09:46;;;;;;;3.35;0.70;;;;;;;25.34;23.27;98249.78;10615182;27;20039;-71
2023/05/31 14:15:07;;;;;;;2.75;0.43;;;;;;;24.66;23.44;98249.19;10615221;27;20473;-71
2023/05/31 14:20:29;;;;;;;2.13;0.43;;;;;;;24.67;23.75;98247.78;10601207;27;20039;-71
2023/05/31 14:25:50;;;;;;;2.00;0.38;;;;;;;24.78;23.65;98238.72;10600776;27;20044;-71
2023/05/31 14:31:10;;;;;;;2.42;0.47;;;;;;;24.56;23.47;98232.59;10600247;27;20062;-71
2023/05/31 14:36:32;;;;;;;2.85;0.50;;;;;;;24.62;23.66;98224.16;10585737;27;20039;-71
2023/05/31 14:41:53;;;;;;;2.63;0.50;;;;;;;24.53;23.49;98223.28;10614218;27;20039;-71
2023/05/31 14:47:14;;;;;;;4.22;0.52;;;;;;;24.48;23.36;98226.72;10599660;27;20043;-71
2023/05/31 14:52:35;;;;;;;1.20;0.40;;;;;;;24.48;24.16;98209.59;10613761;27;20084;-71
2023/05/31 14:57:57;;;;;;;3.58;0.50;;;;;;;24.84;23.78;98203.88;10598666;27;20438;-71
2023/05/31 15:03:18;;;;;;;3.45;0.50;;;;;;;24.84;23.44;98204.59;10584685;27;20446;-71
2023/05/31 15:08:39;;;;;;;2.15;0.82;;;;;;;24.59;22.23;98194.13;10598751;27;20392;-71
2023/05/31 15:13:59;;;;;;;2.28;0.70;;;;;;;24.35;22.14;98194.38;10597859;27;20088;-70
2023/05/31 15:19:20;;;;;;;1.20;0.50;;;;;;;24.27;22.48;98194.91;10598505;27;20186;-70
2023/05/31 15:24:42;;;;;;;5.32;0.60;;;;;;;23.98;23.64;98187.16;10612633;27;20043;-71
2023/05/31 15:30:04;;;;;;;3.63;0.50;;;;;;;23.81;24.09;98182.50;10627500;27;20046;-71
2023/05/31 15:35:25;;;;;;;1.73;0.63;;;;;;;23.67;23.96;98168.66;10611959;27;20492;-70
2023/05/31 15:40:46;;;;;;;2.88;0.55;;;;;;;23.67;24.27;98160.84;10597698;27;20080;-71
2023/05/31 15:46:06;;;;;;;2.08;0.68;;;;;;;23.56;24.26;98169.81;10597514;27;20043;-71
2023/05/31 15:51:27;;;;;;;4.00;0.73;;;;;;;23.56;24.03;98166.97;10626743;27;20392;-70
2023/05/31 15:56:48;;;;;;;4.78;1.00;;;;;;;23.68;23.73;98167.97;10611248;27;20035;-71
2023/05/31 16:02:09;;;;;;;3.90;0.77;;;;;;;23.80;23.54;98163.94;10611092;27;20430;-71
2023/05/31 16:07:30;;;;;;;2.70;0.70;;;;;;;23.74;23.72;98149.56;10595772;27;20541;-70
2023/05/31 16:12:50;;;;;;;3.30;0.60;;;;;;;23.61;23.73;98149.28;10610487;27;20039;-71
2023/05/31 16:18:11;;;;;;;7.82;0.82;;;;;;;23.59;24.15;98142.84;10625891;27;20112;-71
2023/05/31 16:23:33;;;;;;;1.95;0.70;;;;;;;23.64;24.04;98141.50;10596219;27;20054;-71
2023/05/31 16:28:53;;;;;;;3.53;0.70;;;;;;;23.72;24.14;98130.28;10609957;27;20472;-71
2023/05/31 16:34:14;;;;;;;4.22;1.13;;;;;;;23.58;24.17;98122.13;10595121;27;20043;-70
2023/05/31 16:39:35;;;;;;;3.70;0.80;;;;;;;23.33;24.76;98128.69;10624759;27;20043;-71
2023/05/31 16:44:56;;;;;;;3.75;0.90;;;;;;;23.15;24.98;98120.41;10595418;27;20097;-70
2023/05/31 16:50:17;;;;;;;1.92;0.70;;;;;;;23.13;25.30;98117.53;10580904;27;20035;-71
2023/05/31 16:55:41;;;;;;;5.03;1.15;;;;;;;23.18;25.02;98126.91;10581648;27;20063;-70
2023/05/31 17:01:01;;;;;;;3.88;0.90;;;;;;;23.16;25.17;98118.28;10624183;27;20399;-71
2023/05/31 17:06:22;;;;;;;3.95;0.77;;;;;;;23.06;25.45;98122.34;10594344;27;20085;-71
2023/05/31 17:11:43;;;;;;;3.13;0.80;;;;;;;23.06;25.08;98130.88;10608390;27;20066;-71
2023/05/31 17:17:04;;;;;;;2.47;0.77;;;;;;;22.92;25.91;98118.44;10594277;28;20114;-71
2023/05/31 17:22:25;;;;;;;2.33;0.80;;;;;;;22.75;25.98;98123.69;10607278;28;20067;-71
2023/05/31 17:27:46;;;;;;;3.63;0.70;;;;;;;22.74;26.01;98115.84;10593762;28;20438;-70
2023/05/31 17:33:07;;;;;;;2.67;0.60;;;;;;;22.73;26.04;98115.09;10593837;28;20091;-70
2023/05/31 17:38:28;;;;;;;1.95;0.98;;;;;;;22.63;25.92;98114.13;10593824;28;20389;-71
2023/05/31 17:43:49;;;;;;;3.88;1.02;;;;;;;22.48;26.53;98105.22;10593318;28;20043;-70
2023/05/31 17:49:10;;;;;;;3.75;0.90;;;;;;;22.35;26.59;98103.44;10593238;28;20472;-70
2023/05/31 17:54:31;;;;;;;3.38;0.82;;;;;;;22.33;26.62;98100.56;10593658;28;20043;-70
2023/05/31 17:59:54;;;;;;;3.20;0.80;;;;;;;22.25;26.94;98103.19;10593973;28;20044;-70
2023/05/31 18:05:15;;;;;;;4.05;0.75;;;;;;;22.09;27.08;98103.44;10607645;28;20049;-71
2023/05/31 18:10:36;;;;;;;3.97;0.70;;;;;;;21.98;27.29;98088.19;10607720;28;20061;-70
2023/05/31 18:15:57;;;;;;;3.30;0.50;;;;;;;21.83;27.42;98091.31;10607377;28;20063;-70
2023/05/31 18:21:18;;;;;;;3.70;1.10;;;;;;;21.62;27.65;98092.84;10592972;28;20043;-70
2023/05/31 18:26:39;;;;;;;6.47;0.80;;;;;;;21.41;28.23;98091.50;10593181;28;20100;-70
2023/05/31 18:32:00;;;;;;;6.07;0.90;;;;;;;21.21;28.36;98083.06;10610685;27;20399;-70
2023/05/31 18:37:22;;;;;;;3.55;0.90;;;;;;;21.05;28.62;98091.81;10586110;27;20050;-70
2023/05/31 18:42:44;;;;;;;3.83;0.87;;;;;;;20.89;29.18;98084.88;10614689;27;20042;-70
2023/05/31 18:48:06;;;;;;;6.60;1.17;;;;;;;20.72;29.38;98086.44;10614164;27;20046;-70
2023/05/31 18:53:27;;;;;;;4.00;0.95;;;;;;;20.54;30.05;98083.72;10614555;27;20438;-71
2023/05/31 18:58:48;;;;;;;3.13;1.23;;;;;;;20.37;30.23;98090.22;10629392;27;20400;-70
2023/05/31 19:04:10;;;;;;;4.32;1.30;;;;;;;20.23;30.38;98088.34;10613868;27;20515;-70
2023/05/31 19:09:31;;;;;;;5.68;0.93;;;;;;;20.01;30.82;98088.28;10599351;27;20039;-70
2023/05/31 19:14:52;;;;;;;5.97;1.40;;;;;;;19.84;31.38;98091.91;10598990;27;20039;-70
2023/05/31 19:20:13;;;;;;;5.47;1.00;;;;;;;19.64;31.88;98094.69;10598514;27;20502;-71
2023/05/31 19:25:33;;;;;;;4.45;1.00;;;;;;;19.46;32.36;98096.81;10598645;27;20039;-71
2023/05/31 19:30:54;;;;;;;5.65;0.98;;;;;;;19.28;32.77;98093.28;10583916;27;20043;-70
2023/05/31 19:36:15;;;;;;;6.13;1.00;;;;;;;19.15;33.38;98092.09;10612133;27;20070;-70
2023/05/31 19:41:40;;;;;;;3.67;1.30;;;;;;;19.03;33.62;98097.28;10597545;27;20066;-70
2023/05/31 19:47:01;;;;;;;2.42;1.10;;;;;;;18.90;34.03;98100.97;10583699;27;20090;-70
2023/05/31 19:52:23;;;;;;;2.38;1.05;;;;;;;18.81;34.26;98111.22;10611655;27;20043;-70
2023/05/31 19:57:44;;;;;;;4.20;1.00;;;;;;;18.62;34.54;98106.16;10611335;27;20046;-70
2023/05/31 20:03:05;;;;;;;3.30;1.15;;;;;;;18.36;35.09;98109.34;10596987;27;20058;-71
2023/05/31 20:08:26;;;;;;;5.65;1.50;;;;;;;18.23;35.48;98104.50;10610517;27;20039;-70
2023/05/31 20:13:47;;;;;;;5.00;1.90;;;;;;;18.08;35.70;98108.84;10596362;27;20043;-70
2023/05/31 20:19:07;;;;;;;3.42;1.23;;;;;;;17.99;36.23;98107.03;10596162;27;20067;-70
2023/05/31 20:24:30;;;;;;;3.83;1.50;;;;;;;17.97;36.69;98101.28;10596050;27;20046;-70
2023/05/31 20:29:50;;;;;;;5.35;1.63;;;;;;;17.93;36.70;98089.78;10595690;27;20039;-70
2023/05/31 20:35:12;;;;;;;3.42;1.67;;;;;;;17.78;37.07;98094.09;10595374;27;20042;-70
2023/05/31 20:40:33;;;;;;;4.07;1.10;;;;;;;17.63;37.66;98087.03;10609900;27;20055;-70
2023/05/31 20:45:54;;;;;;;3.25;1.30;;;;;;;17.50;37.98;98084.31;10609396;27;20043;-70
2023/05/31 20:51:15;;;;;;;7.75;1.40;;;;;;;17.40;38.11;98090.22;10609193;27;20048;-70
2023/05/31 20:56:35;;;;;;;7.25;1.73;;;;;;;17.28;38.43;98089.66;10580674;27;20074;-70
2023/05/31 21:01:57;;;;;;;7.63;1.63;;;;;;;17.21;38.77;98090.72;10580994;27;20047;-70
2023/05/31 21:07:18;;;;;;;5.00;1.48;;;;;;;17.11;38.83;98085.34;10608830;27;20070;-70
2023/05/31 21:12:39;;;;;;;4.45;1.33;;;;;;;17.06;39.12;98081.59;10594490;27;20042;-70
2023/05/31 21:18:00;;;;;;;4.38;1.20;;;;;;;17.00;39.49;98086.22;10594592;27;20072;-70
2023/05/31 21:23:21;;;;;;;3.50;0.90;;;;;;;16.98;39.57;98080.47;10594425;28;20283;-70
2023/05/31 21:28:45;;;;;;;2.78;1.17;;;;;;;16.98;39.80;98080.47;10595251;28;20046;-70
2023/05/31 21:34:06;;;;;;;1.92;0.90;;;;;;;16.93;39.98;98078.84;10579736;28;20043;-70
2023/05/31 21:39:27;;;;;;;3.67;1.02;;;;;;;16.86;40.12;98075.00;10594282;28;20481;-70
2023/05/31 21:44:47;;;;;;;2.72;0.90;;;;;;;16.81;40.39;98082.53;10623278;28;20050;-70
2023/05/31 21:50:08;;;;;;;2.25;0.90;;;;;;;16.76;40.58;98063.94;10623440;28;20044;-70
2023/05/31 21:55:30;;;;;;;6.60;1.00;;;;;;;16.67;40.67;98064.88;10593981;28;20078;-70
2023/05/31 22:00:51;;;;;;;2.88;0.90;;;;;;;16.63;40.85;98070.34;10579629;28;20066;-70
2023/05/31 22:06:12;;;;;;;2.17;0.88;;;;;;;16.56;41.00;98062.94;10624867;27;20381;-70
2023/05/31 22:11:33;;;;;;;2.78;0.70;;;;;;;16.54;40.99;98079.75;10601588;27;20065;-70
2023/05/31 22:16:56;;;;;;;2.17;0.80;;;;;;;16.49;41.16;98070.34;10616380;27;20084;-71
2023/05/31 22:22:17;;;;;;;2.20;0.68;;;;;;;16.48;41.10;98071.00;10603422;27;20373;-71
2023/05/31 22:27:38;;;;;;;4.50;1.23;;;;;;;16.44;41.14;98077.16;10601738;27;20491;-70
2023/05/31 22:32:59;;;;;;;2.45;0.90;;;;;;;16.39;41.42;98077.56;10600970;27;20040;-70
2023/05/31 22:38:20;;;;;;;3.17;1.15;;;;;;;16.35;41.09;98077.38;10630536;27;20389;-70
2023/05/31 22:43:41;;;;;;;2.17;1.00;;;;;;;16.33;41.36;98071.66;10614486;27;20050;-70
2023/05/31 22:49:02;;;;;;;2.40;1.00;;;;;;;16.34;41.03;98076.66;10614301;27;20042;-70
2023/05/31 22:54:23;;;;;;;3.60;1.00;;;;;;;16.31;41.03;98077.91;10614256;27;20046;-70
2023/05/31 22:59:43;;;;;;;3.30;0.60;;;;;;;16.27;41.04;98075.63;10599675;27;20066;-70
2023/05/31 23:05:05;;;;;;;2.97;1.10;;;;;;;16.18;41.37;98078.66;10599229;27;20048;-70
2023/05/31 23:10:29;;;;;;;5.47;0.80;;;;;;;16.13;41.47;98079.81;10614033;27;20066;-70
2023/05/31 23:15:50;;;;;;;2.33;0.88;;;;;;;16.05;41.48;98082.94;10599400;27;20527;-70
2023/05/31 23:21:11;;;;;;;7.32;1.20;;;;;;;16.02;41.40;98079.28;10613334;27;20070;-70
2023/05/31 23:26:34;;;;;;;3.58;0.80;;;;;;;15.96;41.52;98086.69;10612983;27;20126;-70
2023/05/31 23:31:55;;;;;;;4.18;1.10;;;;;;;15.89;41.60;98080.00;10598489;27;20039;-70
2023/05/31 23:37:16;;;;;;;4.60;1.33;;;;;;;15.82;41.83;98083.13;10598119;27;20066;-71
2023/05/31 23:42:37;;;;;;;4.10;0.90;;;;;;;15.69;41.88;98076.13;10612364;27;20043;-70
2023/05/31 23:47:58;;;;;;;4.40;1.08;;;;;;;15.56;42.27;98074.72;10597875;27;20050;-70
2023/05/31 23:53:18;;;;;;;3.97;0.90;;;;;;;15.40;42.25;98077.41;10583521;27;20061;-70
2023/05/31 23:58:39;;;;;;;2.45;1.05;;;;;;;15.21;42.55;98074.94;10597347;27;20502;-71
